sensor_id;sensor_type;location;lat;lon;timestamp;temperature;humidity
10468;DHT22;5281;48.878;9.394;2022-08-01T00:01:31;22.00;86.50
10468;DHT22;5281;48.878;9.394;2022-08-01T00:03:58;21.90;87.10
10468;DHT22;5281;48.878;9.394;2022-08-01T00:06:26;21.90;88.40
10468;DHT22;5281;48.878;9.394;2022-08-01T00:08:54;21.90;88.40
10468;DHT22;5281;48.878;9.394;2022-08-01T00:11:21;21.90;88.70
10468;DHT22;5281;48.878;9.394;2022-08-01T00:13:48;21.80;88.90
10468;DHT22;5281;48.878;9.394;2022-08-01T00:16:15;21.80;89.90
10468;DHT22;5281;48.878;9.394;2022-08-01T00:18:42;21.80;90.30
10468;DHT22;5281;48.878;9.394;2022-08-01T00:21:09;21.70;90.50
10468;DHT22;5281;48.878;9.394;2022-08-01T00:23:35;21.70;90.80
10468;DHT22;5281;48.878;9.394;2022-08-01T00:26:03;21.60;90.80
10468;DHT22;5281;48.878;9.394;2022-08-01T00:28:30;21.60;91.00
10468;DHT22;5281;48.878;9.394;2022-08-01T00:30:57;21.60;91.10
10468;DHT22;5281;48.878;9.394;2022-08-01T00:33:23;21.60;91.10
10468;DHT22;5281;48.878;9.394;2022-08-01T00:35:50;21.60;91.30
10468;DHT22;5281;48.878;9.394;2022-08-01T00:38:17;21.60;91.60
10468;DHT22;5281;48.878;9.394;2022-08-01T00:40:43;21.60;91.70
10468;DHT22;5281;48.878;9.394;2022-08-01T00:43:12;21.60;91.80
10468;DHT22;5281;48.878;9.394;2022-08-01T00:45:38;21.50;91.90
10468;DHT22;5281;48.878;9.394;2022-08-01T00:48:05;21.50;92.00
10468;DHT22;5281;48.878;9.394;2022-08-01T00:50:32;21.50;92.00
10468;DHT22;5281;48.878;9.394;2022-08-01T00:53:00;21.50;92.30
10468;DHT22;5281;48.878;9.394;2022-08-01T00:55:27;21.40;92.50
10468;DHT22;5281;48.878;9.394;2022-08-01T00:57:54;21.40;92.60
10468;DHT22;5281;48.878;9.394;2022-08-01T01:00:23;21.40;93.10
10468;DHT22;5281;48.878;9.394;2022-08-01T01:02:50;21.40;93.10
10468;DHT22;5281;48.878;9.394;2022-08-01T01:05:17;21.40;93.20
10468;DHT22;5281;48.878;9.394;2022-08-01T01:07:48;21.40;93.20
10468;DHT22;5281;48.878;9.394;2022-08-01T01:10:20;21.40;93.70
10468;DHT22;5281;48.878;9.394;2022-08-01T01:12:51;21.30;93.90
10468;DHT22;5281;48.878;9.394;2022-08-01T01:15:26;21.30;94.30
10468;DHT22;5281;48.878;9.394;2022-08-01T01:17:57;21.30;94.40
10468;DHT22;5281;48.878;9.394;2022-08-01T01:20:28;21.30;94.40
10468;DHT22;5281;48.878;9.394;2022-08-01T01:23:09;21.30;94.50
10468;DHT22;5281;48.878;9.394;2022-08-01T01:25:53;21.30;94.60
10468;DHT22;5281;48.878;9.394;2022-08-01T01:28:29;21.30;94.90
10468;DHT22;5281;48.878;9.394;2022-08-01T01:31:00;21.30;95.10
10468;DHT22;5281;48.878;9.394;2022-08-01T01:33:32;21.20;95.50
10468;DHT22;5281;48.878;9.394;2022-08-01T01:36:03;21.10;95.80
10468;DHT22;5281;48.878;9.394;2022-08-01T01:38:34;21.10;96.20
10468;DHT22;5281;48.878;9.394;2022-08-01T01:41:03;21.00;96.50
10468;DHT22;5281;48.878;9.394;2022-08-01T01:43:32;20.90;96.70
10468;DHT22;5281;48.878;9.394;2022-08-01T01:46:02;20.90;97.00
10468;DHT22;5281;48.878;9.394;2022-08-01T01:48:30;20.80;97.40
10468;DHT22;5281;48.878;9.394;2022-08-01T01:50:58;20.80;97.70
10468;DHT22;5281;48.878;9.394;2022-08-01T01:53:27;20.70;97.80
10468;DHT22;5281;48.878;9.394;2022-08-01T01:55:56;20.70;98.10
10468;DHT22;5281;48.878;9.394;2022-08-01T01:58:24;20.70;98.40
10468;DHT22;5281;48.878;9.394;2022-08-01T02:00:53;20.70;98.40
10468;DHT22;5281;48.878;9.394;2022-08-01T02:03:23;20.70;98.40
10468;DHT22;5281;48.878;9.394;2022-08-01T02:05:51;20.70;98.40
10468;DHT22;5281;48.878;9.394;2022-08-01T02:08:20;20.70;98.40
10468;DHT22;5281;48.878;9.394;2022-08-01T02:10:51;20.70;98.40
10468;DHT22;5281;48.878;9.394;2022-08-01T02:13:33;20.70;98.60
10468;DHT22;5281;48.878;9.394;2022-08-01T02:16:01;20.70;99.00
10468;DHT22;5281;48.878;9.394;2022-08-01T02:18:29;20.70;99.50
10468;DHT22;5281;48.878;9.394;2022-08-01T02:20:57;20.70;99.70
10468;DHT22;5281;48.878;9.394;2022-08-01T02:23:28;20.70;99.80
10468;DHT22;5281;48.878;9.394;2022-08-01T02:25:58;20.60;99.90
10468;DHT22;5281;48.878;9.394;2022-08-01T02:28:30;20.60;99.90
10468;DHT22;5281;48.878;9.394;2022-08-01T02:31:01;20.60;99.90
10468;DHT22;5281;48.878;9.394;2022-08-01T02:33:35;20.60;99.90
10468;DHT22;5281;48.878;9.394;2022-08-01T02:36:03;20.60;99.90
10468;DHT22;5281;48.878;9.394;2022-08-01T02:38:35;20.60;99.90
10468;DHT22;5281;48.878;9.394;2022-08-01T02:41:05;20.60;99.90
10468;DHT22;5281;48.878;9.394;2022-08-01T02:43:35;20.60;99.90
10468;DHT22;5281;48.878;9.394;2022-08-01T02:46:04;20.60;99.90
10468;DHT22;5281;48.878;9.394;2022-08-01T02:48:34;20.60;99.90
10468;DHT22;5281;48.878;9.394;2022-08-01T02:51:03;20.50;99.90
10468;DHT22;5281;48.878;9.394;2022-08-01T02:53:33;20.50;99.90
10468;DHT22;5281;48.878;9.394;2022-08-01T02:56:04;20.50;99.90
10468;DHT22;5281;48.878;9.394;2022-08-01T02:58:32;20.50;99.90
10468;DHT22;5281;48.878;9.394;2022-08-01T03:01:00;20.50;99.90
10468;DHT22;5281;48.878;9.394;2022-08-01T03:03:28;20.50;99.90
10468;DHT22;5281;48.878;9.394;2022-08-01T03:05:57;20.50;99.90
10468;DHT22;5281;48.878;9.394;2022-08-01T03:08:25;20.50;99.90
10468;DHT22;5281;48.878;9.394;2022-08-01T03:10:53;20.50;99.90
10468;DHT22;5281;48.878;9.394;2022-08-01T03:13:21;20.50;99.90
10468;DHT22;5281;48.878;9.394;2022-08-01T03:15:49;20.50;99.90
10468;DHT22;5281;48.878;9.394;2022-08-01T03:18:17;20.50;99.90
10468;DHT22;5281;48.878;9.394;2022-08-01T03:20:45;20.50;99.90
10468;DHT22;5281;48.878;9.394;2022-08-01T03:23:15;20.40;99.90
10468;DHT22;5281;48.878;9.394;2022-08-01T03:25:44;20.40;99.90
10468;DHT22;5281;48.878;9.394;2022-08-01T03:28:13;20.50;99.90
10468;DHT22;5281;48.878;9.394;2022-08-01T03:30:41;20.40;99.90
10468;DHT22;5281;48.878;9.394;2022-08-01T03:33:08;20.40;99.90
10468;DHT22;5281;48.878;9.394;2022-08-01T03:35:38;20.40;99.90
10468;DHT22;5281;48.878;9.394;2022-08-01T03:38:08;20.40;99.90
10468;DHT22;5281;48.878;9.394;2022-08-01T03:40:40;20.40;99.90
10468;DHT22;5281;48.878;9.394;2022-08-01T03:43:11;20.40;99.90
10468;DHT22;5281;48.878;9.394;2022-08-01T03:45:41;20.40;99.90
10468;DHT22;5281;48.878;9.394;2022-08-01T03:48:14;20.30;99.90
10468;DHT22;5281;48.878;9.394;2022-08-01T03:50:44;20.20;99.90
10468;DHT22;5281;48.878;9.394;2022-08-01T03:53:13;20.20;99.90
10468;DHT22;5281;48.878;9.394;2022-08-01T03:55:43;20.10;99.90
10468;DHT22;5281;48.878;9.394;2022-08-01T03:58:10;20.00;99.90
10468;DHT22;5281;48.878;9.394;2022-08-01T04:00:38;19.90;99.90
10468;DHT22;5281;48.878;9.394;2022-08-01T04:03:08;19.90;99.90
10468;DHT22;5281;48.878;9.394;2022-08-01T04:05:36;19.80;99.90
10468;DHT22;5281;48.878;9.394;2022-08-01T04:08:03;19.80;99.90
10468;DHT22;5281;48.878;9.394;2022-08-01T04:10:30;19.90;99.90
10468;DHT22;5281;48.878;9.394;2022-08-01T04:12:58;19.90;99.90
10468;DHT22;5281;48.878;9.394;2022-08-01T04:15:25;20.00;99.90
10468;DHT22;5281;48.878;9.394;2022-08-01T04:17:52;20.00;99.90
10468;DHT22;5281;48.878;9.394;2022-08-01T04:20:19;20.00;99.90
10468;DHT22;5281;48.878;9.394;2022-08-01T04:22:46;20.10;99.90
10468;DHT22;5281;48.878;9.394;2022-08-01T04:25:17;20.10;99.90
10468;DHT22;5281;48.878;9.394;2022-08-01T04:27:47;20.20;99.90
10468;DHT22;5281;48.878;9.394;2022-08-01T04:30:18;20.20;99.90
10468;DHT22;5281;48.878;9.394;2022-08-01T04:32:46;20.30;99.90
10468;DHT22;5281;48.878;9.394;2022-08-01T04:35:16;20.40;99.90
10468;DHT22;5281;48.878;9.394;2022-08-01T04:37:45;20.40;99.90
10468;DHT22;5281;48.878;9.394;2022-08-01T04:40:14;20.50;99.90
10468;DHT22;5281;48.878;9.394;2022-08-01T04:42:42;20.50;99.90
10468;DHT22;5281;48.878;9.394;2022-08-01T04:45:09;20.50;99.90
10468;DHT22;5281;48.878;9.394;2022-08-01T04:47:39;20.50;99.90
10468;DHT22;5281;48.878;9.394;2022-08-01T04:50:08;20.50;99.90
10468;DHT22;5281;48.878;9.394;2022-08-01T04:52:36;20.50;99.90
10468;DHT22;5281;48.878;9.394;2022-08-01T04:55:03;20.50;99.90
10468;DHT22;5281;48.878;9.394;2022-08-01T04:57:31;20.60;99.90
10468;DHT22;5281;48.878;9.394;2022-08-01T04:59:59;20.60;99.90
10468;DHT22;5281;48.878;9.394;2022-08-01T05:02:28;20.60;99.90
10468;DHT22;5281;48.878;9.394;2022-08-01T05:04:56;20.70;99.90
10468;DHT22;5281;48.878;9.394;2022-08-01T05:07:22;20.90;99.90
10468;DHT22;5281;48.878;9.394;2022-08-01T05:09:50;21.10;99.90
10468;DHT22;5281;48.878;9.394;2022-08-01T05:12:17;21.30;99.90
10468;DHT22;5281;48.878;9.394;2022-08-01T05:14:44;21.50;99.90
10468;DHT22;5281;48.878;9.394;2022-08-01T05:17:11;21.70;99.90
10468;DHT22;5281;48.878;9.394;2022-08-01T05:19:39;22.00;99.90
10468;DHT22;5281;48.878;9.394;2022-08-01T05:22:09;22.20;99.90
10468;DHT22;5281;48.878;9.394;2022-08-01T05:24:37;22.40;99.90
10468;DHT22;5281;48.878;9.394;2022-08-01T05:27:05;22.50;99.90
10468;DHT22;5281;48.878;9.394;2022-08-01T05:29:33;22.70;99.90
10468;DHT22;5281;48.878;9.394;2022-08-01T05:32:00;22.80;99.90
10468;DHT22;5281;48.878;9.394;2022-08-01T05:34:28;22.80;99.90
10468;DHT22;5281;48.878;9.394;2022-08-01T05:36:54;22.90;99.90
10468;DHT22;5281;48.878;9.394;2022-08-01T05:39:23;23.10;99.90
10468;DHT22;5281;48.878;9.394;2022-08-01T05:41:49;23.90;99.90
10468;DHT22;5281;48.878;9.394;2022-08-01T05:44:16;24.40;99.90
10468;DHT22;5281;48.878;9.394;2022-08-01T05:46:43;24.40;99.90
10468;DHT22;5281;48.878;9.394;2022-08-01T05:49:09;24.70;99.90
10468;DHT22;5281;48.878;9.394;2022-08-01T05:51:36;26.00;99.90
10468;DHT22;5281;48.878;9.394;2022-08-01T05:54:03;28.00;98.20
10468;DHT22;5281;48.878;9.394;2022-08-01T05:56:31;29.80;93.50
10468;DHT22;5281;48.878;9.394;2022-08-01T05:58:58;30.40;90.60
10468;DHT22;5281;48.878;9.394;2022-08-01T06:01:25;30.30;89.90
10468;DHT22;5281;48.878;9.394;2022-08-01T06:03:52;30.70;87.70
10468;DHT22;5281;48.878;9.394;2022-08-01T06:06:19;32.10;83.00
10468;DHT22;5281;48.878;9.394;2022-08-01T06:08:46;34.00;76.40
10468;DHT22;5281;48.878;9.394;2022-08-01T06:11:13;35.40;68.30
10468;DHT22;5281;48.878;9.394;2022-08-01T06:13:41;35.30;67.50
10468;DHT22;5281;48.878;9.394;2022-08-01T06:16:08;35.20;65.70
10468;DHT22;5281;48.878;9.394;2022-08-01T06:18:34;35.70;64.80
10468;DHT22;5281;48.878;9.394;2022-08-01T06:21:01;36.90;62.00
10468;DHT22;5281;48.878;9.394;2022-08-01T06:23:28;38.00;57.80
10468;DHT22;5281;48.878;9.394;2022-08-01T06:25:55;38.40;57.20
10468;DHT22;5281;48.878;9.394;2022-08-01T06:28:23;38.70;55.80
10468;DHT22;5281;48.878;9.394;2022-08-01T06:30:51;39.40;54.40
10468;DHT22;5281;48.878;9.394;2022-08-01T06:33:18;39.40;53.40
10468;DHT22;5281;48.878;9.394;2022-08-01T06:35:45;38.70;54.20
10468;DHT22;5281;48.878;9.394;2022-08-01T06:38:12;38.90;54.40
10468;DHT22;5281;48.878;9.394;2022-08-01T06:40:38;39.80;53.00
10468;DHT22;5281;48.878;9.394;2022-08-01T06:43:05;40.60;51.30
10468;DHT22;5281;48.878;9.394;2022-08-01T06:45:32;40.90;50.40
10468;DHT22;5281;48.878;9.394;2022-08-01T06:48:00;41.20;49.50
10468;DHT22;5281;48.878;9.394;2022-08-01T06:50:27;41.60;49.10
10468;DHT22;5281;48.878;9.394;2022-08-01T06:52:53;42.00;47.90
10468;DHT22;5281;48.878;9.394;2022-08-01T06:55:20;42.10;47.90
10468;DHT22;5281;48.878;9.394;2022-08-01T06:57:49;42.00;47.10
10468;DHT22;5281;48.878;9.394;2022-08-01T07:00:17;40.60;49.00
10468;DHT22;5281;48.878;9.394;2022-08-01T07:02:47;40.40;49.80
10468;DHT22;5281;48.878;9.394;2022-08-01T07:05:16;40.80;48.30
10468;DHT22;5281;48.878;9.394;2022-08-01T07:07:43;41.00;47.90
10468;DHT22;5281;48.878;9.394;2022-08-01T07:10:10;40.00;49.40
10468;DHT22;5281;48.878;9.394;2022-08-01T07:12:37;39.60;50.00
10468;DHT22;5281;48.878;9.394;2022-08-01T07:15:06;39.60;49.70
10468;DHT22;5281;48.878;9.394;2022-08-01T07:17:36;39.10;51.00
10468;DHT22;5281;48.878;9.394;2022-08-01T07:20:05;39.80;50.40
10468;DHT22;5281;48.878;9.394;2022-08-01T07:22:33;40.70;48.90
10468;DHT22;5281;48.878;9.394;2022-08-01T07:25:00;42.20;46.90
10468;DHT22;5281;48.878;9.394;2022-08-01T07:27:27;43.40;45.10
10468;DHT22;5281;48.878;9.394;2022-08-01T07:29:54;44.10;43.80
10468;DHT22;5281;48.878;9.394;2022-08-01T07:32:21;44.70;42.60
10468;DHT22;5281;48.878;9.394;2022-08-01T07:34:48;44.80;42.50
10468;DHT22;5281;48.878;9.394;2022-08-01T07:37:15;44.50;42.30
10468;DHT22;5281;48.878;9.394;2022-08-01T07:39:43;41.70;45.60
10468;DHT22;5281;48.878;9.394;2022-08-01T07:42:10;40.00;47.80
10468;DHT22;5281;48.878;9.394;2022-08-01T07:44:37;38.50;49.90
10468;DHT22;5281;48.878;9.394;2022-08-01T07:47:05;38.30;50.20
10468;DHT22;5281;48.878;9.394;2022-08-01T07:49:32;38.00;50.80
10468;DHT22;5281;48.878;9.394;2022-08-01T07:51:59;38.20;50.50
10468;DHT22;5281;48.878;9.394;2022-08-01T07:54:25;38.90;49.40
10468;DHT22;5281;48.878;9.394;2022-08-01T07:56:54;39.20;49.10
10468;DHT22;5281;48.878;9.394;2022-08-01T07:59:21;39.50;48.80
10468;DHT22;5281;48.878;9.394;2022-08-01T08:01:49;40.00;48.10
10468;DHT22;5281;48.878;9.394;2022-08-01T08:04:16;39.50;48.80
10468;DHT22;5281;48.878;9.394;2022-08-01T08:06:43;39.60;48.80
10468;DHT22;5281;48.878;9.394;2022-08-01T08:09:13;40.20;47.60
10468;DHT22;5281;48.878;9.394;2022-08-01T08:11:42;40.30;47.40
10468;DHT22;5281;48.878;9.394;2022-08-01T08:14:11;40.20;47.20
10468;DHT22;5281;48.878;9.394;2022-08-01T08:16:38;40.00;47.60
10468;DHT22;5281;48.878;9.394;2022-08-01T08:19:05;40.90;46.40
10468;DHT22;5281;48.878;9.394;2022-08-01T08:21:32;41.70;45.00
10468;DHT22;5281;48.878;9.394;2022-08-01T08:23:59;41.80;45.10
10468;DHT22;5281;48.878;9.394;2022-08-01T08:26:45;42.30;44.10
10468;DHT22;5281;48.878;9.394;2022-08-01T08:29:14;42.00;44.70
10468;DHT22;5281;48.878;9.394;2022-08-01T08:31:41;42.40;44.20
10468;DHT22;5281;48.878;9.394;2022-08-01T08:34:08;41.70;44.80
10468;DHT22;5281;48.878;9.394;2022-08-01T08:36:35;40.80;46.20
10468;DHT22;5281;48.878;9.394;2022-08-01T08:39:02;40.50;46.40
10468;DHT22;5281;48.878;9.394;2022-08-01T08:41:30;39.10;48.20
10468;DHT22;5281;48.878;9.394;2022-08-01T08:43:57;37.50;50.40
10468;DHT22;5281;48.878;9.394;2022-08-01T08:46:27;35.80;53.60
10468;DHT22;5281;48.878;9.394;2022-08-01T08:48:55;34.80;55.10
10468;DHT22;5281;48.878;9.394;2022-08-01T08:51:26;34.20;56.40
10468;DHT22;5281;48.878;9.394;2022-08-01T08:53:55;33.50;57.70
10468;DHT22;5281;48.878;9.394;2022-08-01T08:56:24;32.80;59.10
10468;DHT22;5281;48.878;9.394;2022-08-01T08:58:51;31.90;61.10
10468;DHT22;5281;48.878;9.394;2022-08-01T09:01:18;31.60;62.60
10468;DHT22;5281;48.878;9.394;2022-08-01T09:03:47;31.30;62.30
10468;DHT22;5281;48.878;9.394;2022-08-01T09:06:14;30.90;63.70
10468;DHT22;5281;48.878;9.394;2022-08-01T09:08:41;30.60;64.40
10468;DHT22;5281;48.878;9.394;2022-08-01T09:11:08;30.60;64.90
10468;DHT22;5281;48.878;9.394;2022-08-01T09:13:34;30.50;64.40
10468;DHT22;5281;48.878;9.394;2022-08-01T09:16:01;30.50;64.80
10468;DHT22;5281;48.878;9.394;2022-08-01T09:18:33;30.40;64.80
10468;DHT22;5281;48.878;9.394;2022-08-01T09:21:13;30.30;65.60
10468;DHT22;5281;48.878;9.394;2022-08-01T09:23:44;30.10;65.90
10468;DHT22;5281;48.878;9.394;2022-08-01T09:26:12;30.10;66.20
10468;DHT22;5281;48.878;9.394;2022-08-01T09:28:39;30.00;66.80
10468;DHT22;5281;48.878;9.394;2022-08-01T09:31:08;30.10;67.10
10468;DHT22;5281;48.878;9.394;2022-08-01T09:33:49;30.30;66.70
10468;DHT22;5281;48.878;9.394;2022-08-01T09:36:18;30.40;66.50
10468;DHT22;5281;48.878;9.394;2022-08-01T09:38:46;30.40;67.20
10468;DHT22;5281;48.878;9.394;2022-08-01T09:41:12;30.50;66.40
10468;DHT22;5281;48.878;9.394;2022-08-01T09:43:39;30.60;66.30
10468;DHT22;5281;48.878;9.394;2022-08-01T09:46:10;30.80;66.20
10468;DHT22;5281;48.878;9.394;2022-08-01T09:48:37;30.80;65.40
10468;DHT22;5281;48.878;9.394;2022-08-01T09:51:06;30.80;65.10
10468;DHT22;5281;48.878;9.394;2022-08-01T09:53:47;30.80;65.40
10468;DHT22;5281;48.878;9.394;2022-08-01T09:56:14;30.90;65.20
10468;DHT22;5281;48.878;9.394;2022-08-01T09:58:52;30.80;65.50
10468;DHT22;5281;48.878;9.394;2022-08-01T10:01:20;30.60;66.00
10468;DHT22;5281;48.878;9.394;2022-08-01T10:04:04;30.60;66.20
10468;DHT22;5281;48.878;9.394;2022-08-01T10:06:31;30.70;66.30
10468;DHT22;5281;48.878;9.394;2022-08-01T10:08:59;30.90;65.90
10468;DHT22;5281;48.878;9.394;2022-08-01T10:11:26;31.20;65.70
10468;DHT22;5281;48.878;9.394;2022-08-01T10:13:55;31.40;65.40
10468;DHT22;5281;48.878;9.394;2022-08-01T10:16:24;31.50;64.20
10468;DHT22;5281;48.878;9.394;2022-08-01T10:18:52;31.70;63.90
10468;DHT22;5281;48.878;9.394;2022-08-01T10:21:20;32.00;63.80
10468;DHT22;5281;48.878;9.394;2022-08-01T10:23:49;32.30;62.20
10468;DHT22;5281;48.878;9.394;2022-08-01T10:26:17;32.30;62.10
10468;DHT22;5281;48.878;9.394;2022-08-01T10:28:45;32.20;62.30
10468;DHT22;5281;48.878;9.394;2022-08-01T10:31:14;32.20;61.80
10468;DHT22;5281;48.878;9.394;2022-08-01T10:33:43;32.20;61.00
10468;DHT22;5281;48.878;9.394;2022-08-01T10:36:10;32.40;60.90
10468;DHT22;5281;48.878;9.394;2022-08-01T10:38:37;32.60;60.60
10468;DHT22;5281;48.878;9.394;2022-08-01T10:41:05;32.70;60.50
10468;DHT22;5281;48.878;9.394;2022-08-01T10:43:33;32.80;59.90
10468;DHT22;5281;48.878;9.394;2022-08-01T10:46:00;32.80;60.00
10468;DHT22;5281;48.878;9.394;2022-08-01T10:48:34;32.60;60.70
10468;DHT22;5281;48.878;9.394;2022-08-01T10:51:05;32.10;62.00
10468;DHT22;5281;48.878;9.394;2022-08-01T10:53:32;31.40;63.20
10468;DHT22;5281;48.878;9.394;2022-08-01T10:56:01;31.00;63.60
10468;DHT22;5281;48.878;9.394;2022-08-01T10:58:29;31.00;64.70
10468;DHT22;5281;48.878;9.394;2022-08-01T11:01:24;31.00;64.40
10468;DHT22;5281;48.878;9.394;2022-08-01T11:04:13;30.90;64.80
10468;DHT22;5281;48.878;9.394;2022-08-01T11:06:52;31.00;64.70
10468;DHT22;5281;48.878;9.394;2022-08-01T11:09:30;31.10;64.50
10468;DHT22;5281;48.878;9.394;2022-08-01T11:12:06;30.90;64.90
10468;DHT22;5281;48.878;9.394;2022-08-01T11:17:34;30.90;64.20
10468;DHT22;5281;48.878;9.394;2022-08-01T11:20:05;31.10;63.40
10468;DHT22;5281;48.878;9.394;2022-08-01T11:22:33;31.30;63.90
10468;DHT22;5281;48.878;9.394;2022-08-01T11:25:20;31.50;63.60
10468;DHT22;5281;48.878;9.394;2022-08-01T11:27:47;31.60;63.30
10468;DHT22;5281;48.878;9.394;2022-08-01T11:30:24;31.60;63.70
10468;DHT22;5281;48.878;9.394;2022-08-01T11:32:54;31.40;64.20
10468;DHT22;5281;48.878;9.394;2022-08-01T11:35:22;31.20;64.70
10468;DHT22;5281;48.878;9.394;2022-08-01T11:37:51;31.10;64.80
10468;DHT22;5281;48.878;9.394;2022-08-01T11:40:20;31.00;63.90
10468;DHT22;5281;48.878;9.394;2022-08-01T11:42:48;31.10;64.30
10468;DHT22;5281;48.878;9.394;2022-08-01T11:45:15;31.30;63.80
10468;DHT22;5281;48.878;9.394;2022-08-01T11:47:46;31.50;64.40
10468;DHT22;5281;48.878;9.394;2022-08-01T11:50:35;31.70;63.10
10468;DHT22;5281;48.878;9.394;2022-08-01T11:53:04;31.70;61.70
10468;DHT22;5281;48.878;9.394;2022-08-01T11:55:32;31.50;61.50
10468;DHT22;5281;48.878;9.394;2022-08-01T11:58:01;31.30;61.40
10468;DHT22;5281;48.878;9.394;2022-08-01T12:00:28;31.10;61.20
10468;DHT22;5281;48.878;9.394;2022-08-01T12:02:58;31.30;61.70
10468;DHT22;5281;48.878;9.394;2022-08-01T12:05:25;31.50;60.90
10468;DHT22;5281;48.878;9.394;2022-08-01T12:07:54;31.80;59.80
10468;DHT22;5281;48.878;9.394;2022-08-01T12:10:23;31.90;60.00
10468;DHT22;5281;48.878;9.394;2022-08-01T12:12:51;31.90;59.70
10468;DHT22;5281;48.878;9.394;2022-08-01T12:15:19;31.80;60.50
10468;DHT22;5281;48.878;9.394;2022-08-01T12:17:48;32.00;60.60
10468;DHT22;5281;48.878;9.394;2022-08-01T12:20:19;31.90;61.10
10468;DHT22;5281;48.878;9.394;2022-08-01T12:22:46;31.90;60.90
10468;DHT22;5281;48.878;9.394;2022-08-01T12:25:16;32.00;61.30
10468;DHT22;5281;48.878;9.394;2022-08-01T12:27:44;31.90;61.30
10468;DHT22;5281;48.878;9.394;2022-08-01T12:30:13;31.80;61.40
10468;DHT22;5281;48.878;9.394;2022-08-01T12:32:41;31.70;61.70
10468;DHT22;5281;48.878;9.394;2022-08-01T12:35:10;31.30;62.40
10468;DHT22;5281;48.878;9.394;2022-08-01T12:37:37;31.10;62.80
10468;DHT22;5281;48.878;9.394;2022-08-01T12:40:17;31.10;64.00
10468;DHT22;5281;48.878;9.394;2022-08-01T12:42:45;31.20;63.10
10468;DHT22;5281;48.878;9.394;2022-08-01T12:45:15;31.30;63.10
10468;DHT22;5281;48.878;9.394;2022-08-01T12:47:42;31.60;62.20
10468;DHT22;5281;48.878;9.394;2022-08-01T12:50:12;31.80;61.80
10468;DHT22;5281;48.878;9.394;2022-08-01T12:52:39;32.10;61.20
10468;DHT22;5281;48.878;9.394;2022-08-01T12:55:09;32.10;61.20
10468;DHT22;5281;48.878;9.394;2022-08-01T12:57:39;31.90;61.40
10468;DHT22;5281;48.878;9.394;2022-08-01T13:00:11;31.80;61.80
10468;DHT22;5281;48.878;9.394;2022-08-01T13:02:40;31.70;61.70
10468;DHT22;5281;48.878;9.394;2022-08-01T13:05:09;31.80;61.80
10468;DHT22;5281;48.878;9.394;2022-08-01T13:07:41;31.90;61.20
10468;DHT22;5281;48.878;9.394;2022-08-01T13:10:09;32.10;60.80
10468;DHT22;5281;48.878;9.394;2022-08-01T13:12:38;32.10;60.50
10468;DHT22;5281;48.878;9.394;2022-08-01T13:15:19;32.00;60.20
10468;DHT22;5281;48.878;9.394;2022-08-01T13:17:46;32.00;59.90
10468;DHT22;5281;48.878;9.394;2022-08-01T13:20:26;31.90;59.90
10468;DHT22;5281;48.878;9.394;2022-08-01T13:22:53;31.80;60.20
10468;DHT22;5281;48.878;9.394;2022-08-01T13:25:20;31.80;60.00
10468;DHT22;5281;48.878;9.394;2022-08-01T13:27:48;32.00;60.30
10468;DHT22;5281;48.878;9.394;2022-08-01T13:30:17;32.10;60.30
10468;DHT22;5281;48.878;9.394;2022-08-01T13:32:56;32.20;60.20
10468;DHT22;5281;48.878;9.394;2022-08-01T13:35:23;32.10;60.00
10468;DHT22;5281;48.878;9.394;2022-08-01T13:37:49;32.10;59.80
10468;DHT22;5281;48.878;9.394;2022-08-01T13:40:23;32.20;59.50
10468;DHT22;5281;48.878;9.394;2022-08-01T13:42:52;32.00;59.90
10468;DHT22;5281;48.878;9.394;2022-08-01T13:45:20;31.80;60.70
10468;DHT22;5281;48.878;9.394;2022-08-01T13:47:47;31.70;60.70
10468;DHT22;5281;48.878;9.394;2022-08-01T13:50:14;31.60;60.80
10468;DHT22;5281;48.878;9.394;2022-08-01T13:52:40;31.60;61.60
10468;DHT22;5281;48.878;9.394;2022-08-01T13:55:08;31.70;60.80
10468;DHT22;5281;48.878;9.394;2022-08-01T13:57:34;31.60;60.40
10468;DHT22;5281;48.878;9.394;2022-08-01T14:00:04;31.40;60.90
10468;DHT22;5281;48.878;9.394;2022-08-01T14:02:31;31.00;61.70
10468;DHT22;5281;48.878;9.394;2022-08-01T14:04:58;30.80;62.50
10468;DHT22;5281;48.878;9.394;2022-08-01T14:07:25;30.70;62.80
10468;DHT22;5281;48.878;9.394;2022-08-01T14:09:51;30.70;63.50
10468;DHT22;5281;48.878;9.394;2022-08-01T14:12:18;30.70;63.70
10468;DHT22;5281;48.878;9.394;2022-08-01T14:14:45;30.70;63.40
10468;DHT22;5281;48.878;9.394;2022-08-01T14:17:13;30.70;63.30
10468;DHT22;5281;48.878;9.394;2022-08-01T14:19:39;30.70;63.30
10468;DHT22;5281;48.878;9.394;2022-08-01T14:22:06;30.80;62.90
10468;DHT22;5281;48.878;9.394;2022-08-01T14:24:33;30.90;63.50
10468;DHT22;5281;48.878;9.394;2022-08-01T14:27:00;30.90;63.80
10468;DHT22;5281;48.878;9.394;2022-08-01T14:29:27;30.90;63.50
10468;DHT22;5281;48.878;9.394;2022-08-01T14:31:54;31.00;63.00
10468;DHT22;5281;48.878;9.394;2022-08-01T14:34:22;31.10;62.90
10468;DHT22;5281;48.878;9.394;2022-08-01T14:36:49;31.20;62.80
10468;DHT22;5281;48.878;9.394;2022-08-01T14:39:15;31.10;63.10
10468;DHT22;5281;48.878;9.394;2022-08-01T14:41:42;31.10;63.20
10468;DHT22;5281;48.878;9.394;2022-08-01T14:44:09;31.20;63.10
10468;DHT22;5281;48.878;9.394;2022-08-01T14:46:36;31.40;62.40
10468;DHT22;5281;48.878;9.394;2022-08-01T14:49:03;31.60;62.20
10468;DHT22;5281;48.878;9.394;2022-08-01T14:51:31;31.40;62.60
10468;DHT22;5281;48.878;9.394;2022-08-01T14:53:59;31.20;63.10
10468;DHT22;5281;48.878;9.394;2022-08-01T14:56:26;31.00;64.10
10468;DHT22;5281;48.878;9.394;2022-08-01T14:58:53;31.10;63.40
10468;DHT22;5281;48.878;9.394;2022-08-01T15:01:20;31.40;62.70
10468;DHT22;5281;48.878;9.394;2022-08-01T15:03:46;31.70;62.90
10468;DHT22;5281;48.878;9.394;2022-08-01T15:06:15;31.90;61.80
10468;DHT22;5281;48.878;9.394;2022-08-01T15:08:43;31.90;61.20
10468;DHT22;5281;48.878;9.394;2022-08-01T15:11:10;31.50;61.80
10468;DHT22;5281;48.878;9.394;2022-08-01T15:13:37;31.20;62.20
10468;DHT22;5281;48.878;9.394;2022-08-01T15:16:04;31.10;62.50
10468;DHT22;5281;48.878;9.394;2022-08-01T15:18:31;31.10;62.80
10468;DHT22;5281;48.878;9.394;2022-08-01T15:20:57;31.10;62.20
10468;DHT22;5281;48.878;9.394;2022-08-01T15:23:24;31.00;62.20
10468;DHT22;5281;48.878;9.394;2022-08-01T15:25:52;31.00;62.50
10468;DHT22;5281;48.878;9.394;2022-08-01T15:28:19;31.00;62.40
10468;DHT22;5281;48.878;9.394;2022-08-01T15:30:46;31.20;61.90
10468;DHT22;5281;48.878;9.394;2022-08-01T15:33:12;31.40;61.40
10468;DHT22;5281;48.878;9.394;2022-08-01T15:35:39;31.50;61.30
10468;DHT22;5281;48.878;9.394;2022-08-01T15:38:07;31.60;60.40
10468;DHT22;5281;48.878;9.394;2022-08-01T15:40:34;31.70;60.80
10468;DHT22;5281;48.878;9.394;2022-08-01T15:43:02;31.80;60.40
10468;DHT22;5281;48.878;9.394;2022-08-01T15:45:29;31.80;60.40
10468;DHT22;5281;48.878;9.394;2022-08-01T15:47:56;31.70;60.10
10468;DHT22;5281;48.878;9.394;2022-08-01T15:50:23;31.60;60.20
10468;DHT22;5281;48.878;9.394;2022-08-01T15:52:49;31.50;60.40
10468;DHT22;5281;48.878;9.394;2022-08-01T15:55:16;31.30;60.80
10468;DHT22;5281;48.878;9.394;2022-08-01T15:57:44;30.90;61.10